Pittsburgh, Pennsylvania
Traffic Map
Current Weather Conditions
Pittsburgh, Pennsylvania
Clear
Clear

Feels Like: 3°
Wind Chill: Ceiling: Unl
Heat Index: Visibility: 10mi
Dew Point: -5° Wind: 5mph
Humidity: 49% Direction: 20° (NNE)
Pressure: 29.7in Gusts: 0mph
Raw Report DataKAGC 261053Z 02004KT 10SM CLR 05/M05 A2970 RMK AO2 SLP067 T00501050
Traffic Incident Summary
Active as of:
Severity:
Category:
InformationThere was an issue retrieving the traffic information for this location. Please try a different location or try again shortly.
Advertisements
Track Severe Weather on mobile